sensor_id;sensor_type;location;lat;lon;timestamp;temperature;humidity
8778;DHT22;4425;50.872;4.712;2022-09-28T00:01:33;9.80;99.90
8778;DHT22;4425;50.872;4.712;2022-09-28T00:04:01;9.80;99.90
8778;DHT22;4425;50.872;4.712;2022-09-28T00:06:29;9.80;99.90
8778;DHT22;4425;50.872;4.712;2022-09-28T00:08:56;9.80;99.90
8778;DHT22;4425;50.872;4.712;2022-09-28T00:11:24;9.80;99.90
8778;DHT22;4425;50.872;4.712;2022-09-28T00:13:54;9.80;99.90
8778;DHT22;4425;50.872;4.712;2022-09-28T00:16:26;9.90;99.90
8778;DHT22;4425;50.872;4.712;2022-09-28T00:18:54;10.00;99.90
8778;DHT22;4425;50.872;4.712;2022-09-28T00:21:22;10.00;99.90
8778;DHT22;4425;50.872;4.712;2022-09-28T00:23:51;10.00;99.90
8778;DHT22;4425;50.872;4.712;2022-09-28T00:26:37;10.00;99.90
8778;DHT22;4425;50.872;4.712;2022-09-28T00:29:06;10.10;99.90
8778;DHT22;4425;50.872;4.712;2022-09-28T00:31:35;10.10;99.90
8778;DHT22;4425;50.872;4.712;2022-09-28T00:34:08;10.10;99.90
8778;DHT22;4425;50.872;4.712;2022-09-28T00:39:58;10.10;99.90
8778;DHT22;4425;50.872;4.712;2022-09-28T00:42:26;10.10;99.90
8778;DHT22;4425;50.872;4.712;2022-09-28T00:44:53;10.10;99.90
8778;DHT22;4425;50.872;4.712;2022-09-28T00:47:32;10.10;99.90
8778;DHT22;4425;50.872;4.712;2022-09-28T00:50:08;10.20;99.90
8778;DHT22;4425;50.872;4.712;2022-09-28T00:52:39;10.20;99.90
8778;DHT22;4425;50.872;4.712;2022-09-28T00:55:12;10.10;99.90
8778;DHT22;4425;50.872;4.712;2022-09-28T00:57:44;10.20;99.90
8778;DHT22;4425;50.872;4.712;2022-09-28T01:00:12;10.20;99.90
8778;DHT22;4425;50.872;4.712;2022-09-28T01:02:42;10.20;99.90
8778;DHT22;4425;50.872;4.712;2022-09-28T01:05:13;10.10;99.90
8778;DHT22;4425;50.872;4.712;2022-09-28T01:07:41;10.10;99.90
8778;DHT22;4425;50.872;4.712;2022-09-28T01:10:09;10.20;99.90
8778;DHT22;4425;50.872;4.712;2022-09-28T01:12:37;10.20;99.90
8778;DHT22;4425;50.872;4.712;2022-09-28T01:15:06;10.10;99.90
8778;DHT22;4425;50.872;4.712;2022-09-28T01:17:43;10.10;99.90
8778;DHT22;4425;50.872;4.712;2022-09-28T01:20:29;10.20;99.90
8778;DHT22;4425;50.872;4.712;2022-09-28T01:23:31;10.20;99.90
8778;DHT22;4425;50.872;4.712;2022-09-28T01:26:16;10.20;99.90
8778;DHT22;4425;50.872;4.712;2022-09-28T01:28:49;10.20;99.90
8778;DHT22;4425;50.872;4.712;2022-09-28T01:31:20;10.20;99.90
8778;DHT22;4425;50.872;4.712;2022-09-28T01:33:56;10.20;99.90
8778;DHT22;4425;50.872;4.712;2022-09-28T01:36:28;10.40;99.90
8778;DHT22;4425;50.872;4.712;2022-09-28T01:39:02;10.20;99.90
8778;DHT22;4425;50.872;4.712;2022-09-28T01:41:34;10.20;99.90
8778;DHT22;4425;50.872;4.712;2022-09-28T01:44:05;10.20;99.90
8778;DHT22;4425;50.872;4.712;2022-09-28T01:46:37;10.10;99.90
8778;DHT22;4425;50.872;4.712;2022-09-28T01:49:11;10.10;99.90
8778;DHT22;4425;50.872;4.712;2022-09-28T01:51:46;10.10;99.90
8778;DHT22;4425;50.872;4.712;2022-09-28T01:54:18;10.00;99.90
8778;DHT22;4425;50.872;4.712;2022-09-28T01:56:51;10.00;99.90
8778;DHT22;4425;50.872;4.712;2022-09-28T01:59:23;10.10;99.90
8778;DHT22;4425;50.872;4.712;2022-09-28T02:01:54;10.00;99.90
8778;DHT22;4425;50.872;4.712;2022-09-28T02:04:28;9.90;99.90
8778;DHT22;4425;50.872;4.712;2022-09-28T02:07:00;9.90;99.90
8778;DHT22;4425;50.872;4.712;2022-09-28T02:09:41;9.90;99.90
8778;DHT22;4425;50.872;4.712;2022-09-28T02:12:14;9.80;99.90
8778;DHT22;4425;50.872;4.712;2022-09-28T02:14:46;9.80;99.90
8778;DHT22;4425;50.872;4.712;2022-09-28T02:17:15;9.80;99.90
8778;DHT22;4425;50.872;4.712;2022-09-28T02:19:43;9.60;99.90
8778;DHT22;4425;50.872;4.712;2022-09-28T02:22:18;9.70;99.90
8778;DHT22;4425;50.872;4.712;2022-09-28T02:24:53;9.70;99.90
8778;DHT22;4425;50.872;4.712;2022-09-28T02:27:49;9.60;99.90
8778;DHT22;4425;50.872;4.712;2022-09-28T02:33:48;9.70;99.90
8778;DHT22;4425;50.872;4.712;2022-09-28T02:36:16;9.70;99.90
8778;DHT22;4425;50.872;4.712;2022-09-28T02:38:43;9.70;99.90
8778;DHT22;4425;50.872;4.712;2022-09-28T02:41:23;9.60;99.90
8778;DHT22;4425;50.872;4.712;2022-09-28T02:43:59;9.70;99.90
8778;DHT22;4425;50.872;4.712;2022-09-28T02:46:34;9.70;99.90
8778;DHT22;4425;50.872;4.712;2022-09-28T02:49:14;9.70;99.90
8778;DHT22;4425;50.872;4.712;2022-09-28T02:51:52;9.70;99.90
8778;DHT22;4425;50.872;4.712;2022-09-28T02:54:38;9.60;99.90
8778;DHT22;4425;50.872;4.712;2022-09-28T02:57:24;9.50;99.90
8778;DHT22;4425;50.872;4.712;2022-09-28T03:00:03;9.60;99.90
8778;DHT22;4425;50.872;4.712;2022-09-28T03:02:36;9.60;99.90
8778;DHT22;4425;50.872;4.712;2022-09-28T03:05:14;9.70;99.90
8778;DHT22;4425;50.872;4.712;2022-09-28T03:07:51;9.70;99.90
8778;DHT22;4425;50.872;4.712;2022-09-28T03:10:26;9.70;99.90
8778;DHT22;4425;50.872;4.712;2022-09-28T03:12:54;9.60;99.90
8778;DHT22;4425;50.872;4.712;2022-09-28T03:15:25;9.60;99.90
8778;DHT22;4425;50.872;4.712;2022-09-28T03:17:55;9.60;99.90
8778;DHT22;4425;50.872;4.712;2022-09-28T03:20:22;9.60;99.90
8778;DHT22;4425;50.872;4.712;2022-09-28T03:22:49;9.50;99.90
8778;DHT22;4425;50.872;4.712;2022-09-28T03:25:16;9.50;99.90
8778;DHT22;4425;50.872;4.712;2022-09-28T03:27:44;9.60;99.90
8778;DHT22;4425;50.872;4.712;2022-09-28T03:30:11;9.60;99.90
8778;DHT22;4425;50.872;4.712;2022-09-28T03:32:40;9.50;99.90
8778;DHT22;4425;50.872;4.712;2022-09-28T03:35:08;9.60;99.90
8778;DHT22;4425;50.872;4.712;2022-09-28T03:37:36;9.60;99.90
8778;DHT22;4425;50.872;4.712;2022-09-28T03:40:04;9.60;99.90
8778;DHT22;4425;50.872;4.712;2022-09-28T03:42:37;9.70;99.90
8778;DHT22;4425;50.872;4.712;2022-09-28T03:48:46;9.50;99.90
8778;DHT22;4425;50.872;4.712;2022-09-28T03:51:13;9.40;99.90
8778;DHT22;4425;50.872;4.712;2022-09-28T03:53:40;9.30;99.90
8778;DHT22;4425;50.872;4.712;2022-09-28T03:56:12;9.30;99.90
8778;DHT22;4425;50.872;4.712;2022-09-28T03:58:39;9.30;99.90
8778;DHT22;4425;50.872;4.712;2022-09-28T04:01:08;9.40;99.90
8778;DHT22;4425;50.872;4.712;2022-09-28T04:03:37;9.40;99.90
8778;DHT22;4425;50.872;4.712;2022-09-28T04:06:05;9.40;99.90
8778;DHT22;4425;50.872;4.712;2022-09-28T04:08:32;9.30;99.90
8778;DHT22;4425;50.872;4.712;2022-09-28T04:11:00;9.30;99.90
8778;DHT22;4425;50.872;4.712;2022-09-28T04:13:28;9.20;99.90
8778;DHT22;4425;50.872;4.712;2022-09-28T04:15:57;9.10;99.90
8778;DHT22;4425;50.872;4.712;2022-09-28T04:18:25;9.10;99.90
8778;DHT22;4425;50.872;4.712;2022-09-28T04:21:02;9.00;99.90
8778;DHT22;4425;50.872;4.712;2022-09-28T04:23:33;8.90;99.90
8778;DHT22;4425;50.872;4.712;2022-09-28T04:26:01;8.90;99.90
8778;DHT22;4425;50.872;4.712;2022-09-28T04:28:28;8.90;99.90
8778;DHT22;4425;50.872;4.712;2022-09-28T04:31:16;9.00;99.90
8778;DHT22;4425;50.872;4.712;2022-09-28T04:33:44;9.00;99.90
8778;DHT22;4425;50.872;4.712;2022-09-28T04:36:11;8.90;99.90
8778;DHT22;4425;50.872;4.712;2022-09-28T04:38:39;8.90;99.90
8778;DHT22;4425;50.872;4.712;2022-09-28T04:41:07;8.90;99.90
8778;DHT22;4425;50.872;4.712;2022-09-28T04:43:34;8.90;99.90
8778;DHT22;4425;50.872;4.712;2022-09-28T04:46:02;9.00;99.90
8778;DHT22;4425;50.872;4.712;2022-09-28T04:48:30;8.90;99.90
8778;DHT22;4425;50.872;4.712;2022-09-28T04:50:58;9.00;99.90
8778;DHT22;4425;50.872;4.712;2022-09-28T04:53:26;9.10;99.90
8778;DHT22;4425;50.872;4.712;2022-09-28T04:55:57;9.10;99.90
8778;DHT22;4425;50.872;4.712;2022-09-28T04:58:25;8.90;99.90
8778;DHT22;4425;50.872;4.712;2022-09-28T05:00:55;8.80;99.90
8778;DHT22;4425;50.872;4.712;2022-09-28T05:03:23;8.80;99.90
8778;DHT22;4425;50.872;4.712;2022-09-28T05:05:50;8.80;99.90
8778;DHT22;4425;50.872;4.712;2022-09-28T05:12:00;8.60;99.90
8778;DHT22;4425;50.872;4.712;2022-09-28T05:14:27;8.60;99.90
8778;DHT22;4425;50.872;4.712;2022-09-28T05:16:54;8.50;99.90
8778;DHT22;4425;50.872;4.712;2022-09-28T05:19:22;8.60;99.90
8778;DHT22;4425;50.872;4.712;2022-09-28T05:21:49;8.50;99.90
8778;DHT22;4425;50.872;4.712;2022-09-28T05:24:16;8.50;99.90
8778;DHT22;4425;50.872;4.712;2022-09-28T05:26:43;8.40;99.90
8778;DHT22;4425;50.872;4.712;2022-09-28T05:32:34;8.30;99.90
8778;DHT22;4425;50.872;4.712;2022-09-28T05:35:07;8.40;99.90
8778;DHT22;4425;50.872;4.712;2022-09-28T05:37:35;8.30;99.90
8778;DHT22;4425;50.872;4.712;2022-09-28T05:40:03;8.30;99.90
8778;DHT22;4425;50.872;4.712;2022-09-28T05:42:30;8.20;99.90
8778;DHT22;4425;50.872;4.712;2022-09-28T05:44:57;8.30;99.90
8778;DHT22;4425;50.872;4.712;2022-09-28T05:47:26;8.20;99.90
8778;DHT22;4425;50.872;4.712;2022-09-28T05:49:59;8.20;99.90
8778;DHT22;4425;50.872;4.712;2022-09-28T05:52:37;8.20;99.90
8778;DHT22;4425;50.872;4.712;2022-09-28T05:55:05;8.10;99.90
8778;DHT22;4425;50.872;4.712;2022-09-28T05:57:33;8.20;99.90
8778;DHT22;4425;50.872;4.712;2022-09-28T06:00:01;8.20;99.90
8778;DHT22;4425;50.872;4.712;2022-09-28T06:02:29;8.20;99.90
8778;DHT22;4425;50.872;4.712;2022-09-28T06:04:58;8.20;99.90
8778;DHT22;4425;50.872;4.712;2022-09-28T06:07:25;8.20;99.90
8778;DHT22;4425;50.872;4.712;2022-09-28T06:09:52;8.20;99.90
8778;DHT22;4425;50.872;4.712;2022-09-28T06:12:20;8.10;99.90
8778;DHT22;4425;50.872;4.712;2022-09-28T06:14:47;8.20;99.90
8778;DHT22;4425;50.872;4.712;2022-09-28T06:17:14;8.40;99.90
8778;DHT22;4425;50.872;4.712;2022-09-28T06:19:46;8.30;99.90
8778;DHT22;4425;50.872;4.712;2022-09-28T06:22:18;8.40;99.90
8778;DHT22;4425;50.872;4.712;2022-09-28T06:24:45;8.40;99.90
8778;DHT22;4425;50.872;4.712;2022-09-28T06:27:12;8.30;99.90
8778;DHT22;4425;50.872;4.712;2022-09-28T06:29:39;8.40;99.90
8778;DHT22;4425;50.872;4.712;2022-09-28T06:32:07;8.40;99.90
8778;DHT22;4425;50.872;4.712;2022-09-28T06:34:35;8.50;99.90
8778;DHT22;4425;50.872;4.712;2022-09-28T06:37:02;8.50;99.90
8778;DHT22;4425;50.872;4.712;2022-09-28T06:39:32;8.70;99.90
8778;DHT22;4425;50.872;4.712;2022-09-28T06:41:59;8.60;99.90
8778;DHT22;4425;50.872;4.712;2022-09-28T06:44:29;8.80;99.90
8778;DHT22;4425;50.872;4.712;2022-09-28T06:46:57;8.70;99.90
8778;DHT22;4425;50.872;4.712;2022-09-28T06:49:25;8.70;99.90
8778;DHT22;4425;50.872;4.712;2022-09-28T06:55:39;8.90;99.90
8778;DHT22;4425;50.872;4.712;2022-09-28T06:58:10;8.90;99.90
8778;DHT22;4425;50.872;4.712;2022-09-28T07:00:38;9.00;99.90
8778;DHT22;4425;50.872;4.712;2022-09-28T07:03:11;9.00;99.90
8778;DHT22;4425;50.872;4.712;2022-09-28T07:05:41;9.10;99.90
8778;DHT22;4425;50.872;4.712;2022-09-28T07:08:09;9.20;99.90
8778;DHT22;4425;50.872;4.712;2022-09-28T07:10:42;9.40;99.90
8778;DHT22;4425;50.872;4.712;2022-09-28T07:13:10;11.00;99.90
8778;DHT22;4425;50.872;4.712;2022-09-28T07:15:40;12.60;99.90
8778;DHT22;4425;50.872;4.712;2022-09-28T07:18:12;14.10;99.90
8778;DHT22;4425;50.872;4.712;2022-09-28T07:20:42;15.50;99.90
8778;DHT22;4425;50.872;4.712;2022-09-28T07:23:11;16.70;99.90
8778;DHT22;4425;50.872;4.712;2022-09-28T07:25:56;17.50;99.90
8778;DHT22;4425;50.872;4.712;2022-09-28T07:28:23;17.90;99.90
8778;DHT22;4425;50.872;4.712;2022-09-28T07:30:50;18.30;99.90
8778;DHT22;4425;50.872;4.712;2022-09-28T07:33:18;18.50;99.90
8778;DHT22;4425;50.872;4.712;2022-09-28T07:35:50;18.00;99.90
8778;DHT22;4425;50.872;4.712;2022-09-28T07:38:18;18.20;99.90
8778;DHT22;4425;50.872;4.712;2022-09-28T07:40:47;18.50;99.90
8778;DHT22;4425;50.872;4.712;2022-09-28T07:43:31;18.00;99.90
8778;DHT22;4425;50.872;4.712;2022-09-28T07:45:58;18.30;99.90
8778;DHT22;4425;50.872;4.712;2022-09-28T07:48:25;18.60;99.90
8778;DHT22;4425;50.872;4.712;2022-09-28T07:50:54;18.90;99.90
8778;DHT22;4425;50.872;4.712;2022-09-28T07:53:40;19.40;99.90
8778;DHT22;4425;50.872;4.712;2022-09-28T07:56:09;20.50;99.90
8778;DHT22;4425;50.872;4.712;2022-09-28T07:58:41;21.00;99.90
8778;DHT22;4425;50.872;4.712;2022-09-28T08:01:12;21.50;99.90
8778;DHT22;4425;50.872;4.712;2022-09-28T08:03:41;22.10;99.90
8778;DHT22;4425;50.872;4.712;2022-09-28T08:06:15;22.50;99.90
8778;DHT22;4425;50.872;4.712;2022-09-28T08:12:25;22.70;99.90
8778;DHT22;4425;50.872;4.712;2022-09-28T08:14:52;22.10;99.90
8778;DHT22;4425;50.872;4.712;2022-09-28T08:17:19;22.20;99.90
8778;DHT22;4425;50.872;4.712;2022-09-28T08:19:47;21.90;99.90
8778;DHT22;4425;50.872;4.712;2022-09-28T08:22:31;20.80;99.90
8778;DHT22;4425;50.872;4.712;2022-09-28T08:25:07;19.30;99.90
8778;DHT22;4425;50.872;4.712;2022-09-28T08:27:35;18.00;99.90
8778;DHT22;4425;50.872;4.712;2022-09-28T08:30:06;16.80;99.90
8778;DHT22;4425;50.872;4.712;2022-09-28T08:32:36;15.80;99.90
8778;DHT22;4425;50.872;4.712;2022-09-28T08:35:04;14.90;99.90
8778;DHT22;4425;50.872;4.712;2022-09-28T08:37:31;14.30;99.90
8778;DHT22;4425;50.872;4.712;2022-09-28T08:39:58;13.90;99.90
8778;DHT22;4425;50.872;4.712;2022-09-28T08:42:32;13.80;99.90
8778;DHT22;4425;50.872;4.712;2022-09-28T08:45:09;13.70;99.90
8778;DHT22;4425;50.872;4.712;2022-09-28T08:47:47;13.70;99.90
8778;DHT22;4425;50.872;4.712;2022-09-28T08:50:39;13.50;99.90
8778;DHT22;4425;50.872;4.712;2022-09-28T08:53:25;13.50;99.90
8778;DHT22;4425;50.872;4.712;2022-09-28T08:55:56;13.50;99.90
8778;DHT22;4425;50.872;4.712;2022-09-28T08:58:30;13.40;99.90
8778;DHT22;4425;50.872;4.712;2022-09-28T09:01:01;13.40;99.90
8778;DHT22;4425;50.872;4.712;2022-09-28T09:03:34;13.30;99.90
8778;DHT22;4425;50.872;4.712;2022-09-28T09:06:10;13.30;99.90
8778;DHT22;4425;50.872;4.712;2022-09-28T09:08:48;13.30;99.90
8778;DHT22;4425;50.872;4.712;2022-09-28T09:11:46;13.30;99.90
8778;DHT22;4425;50.872;4.712;2022-09-28T09:14:52;13.30;99.90
8778;DHT22;4425;50.872;4.712;2022-09-28T09:17:34;13.30;99.90
8778;DHT22;4425;50.872;4.712;2022-09-28T09:20:14;13.30;99.90
8778;DHT22;4425;50.872;4.712;2022-09-28T09:22:51;13.30;99.90
8778;DHT22;4425;50.872;4.712;2022-09-28T09:25:27;13.20;99.90
8778;DHT22;4425;50.872;4.712;2022-09-28T09:31:40;13.40;99.90
8778;DHT22;4425;50.872;4.712;2022-09-28T09:34:52;13.60;99.90
8778;DHT22;4425;50.872;4.712;2022-09-28T09:37:49;13.60;99.90
8778;DHT22;4425;50.872;4.712;2022-09-28T09:40:42;13.70;99.90
8778;DHT22;4425;50.872;4.712;2022-09-28T09:43:36;13.80;99.90
8778;DHT22;4425;50.872;4.712;2022-09-28T09:46:12;13.80;99.90
8778;DHT22;4425;50.872;4.712;2022-09-28T09:48:48;13.90;99.90
8778;DHT22;4425;50.872;4.712;2022-09-28T09:51:23;13.80;99.90
8778;DHT22;4425;50.872;4.712;2022-09-28T09:53:56;13.90;99.90
8778;DHT22;4425;50.872;4.712;2022-09-28T09:56:31;13.90;99.90
8778;DHT22;4425;50.872;4.712;2022-09-28T10:06:14;14.30;99.90
8778;DHT22;4425;50.872;4.712;2022-09-28T10:08:47;14.70;99.90
8778;DHT22;4425;50.872;4.712;2022-09-28T10:11:25;14.90;99.90
8778;DHT22;4425;50.872;4.712;2022-09-28T10:13:53;15.00;99.90
8778;DHT22;4425;50.872;4.712;2022-09-28T10:16:21;15.10;99.90
8778;DHT22;4425;50.872;4.712;2022-09-28T10:18:49;15.20;99.90
8778;DHT22;4425;50.872;4.712;2022-09-28T10:21:20;15.30;99.90
8778;DHT22;4425;50.872;4.712;2022-09-28T10:23:55;15.40;99.90
8778;DHT22;4425;50.872;4.712;2022-09-28T10:26:26;15.40;99.90
8778;DHT22;4425;50.872;4.712;2022-09-28T10:32:36;15.40;99.90
8778;DHT22;4425;50.872;4.712;2022-09-28T10:35:22;15.40;99.90
8778;DHT22;4425;50.872;4.712;2022-09-28T10:37:58;15.20;99.90
8778;DHT22;4425;50.872;4.712;2022-09-28T10:40:37;14.90;99.90
8778;DHT22;4425;50.872;4.712;2022-09-28T10:43:17;15.10;99.90
8778;DHT22;4425;50.872;4.712;2022-09-28T10:45:58;15.40;99.90
8778;DHT22;4425;50.872;4.712;2022-09-28T10:48:26;15.60;99.90
8778;DHT22;4425;50.872;4.712;2022-09-28T10:51:03;15.80;99.90
8778;DHT22;4425;50.872;4.712;2022-09-28T10:53:35;15.70;99.90
8778;DHT22;4425;50.872;4.712;2022-09-28T10:56:21;15.70;99.90
8778;DHT22;4425;50.872;4.712;2022-09-28T10:58:49;15.80;99.90
8778;DHT22;4425;50.872;4.712;2022-09-28T11:01:29;15.90;99.90
8778;DHT22;4425;50.872;4.712;2022-09-28T11:03:59;16.00;99.90
8778;DHT22;4425;50.872;4.712;2022-09-28T11:06:40;16.00;99.90
8778;DHT22;4425;50.872;4.712;2022-09-28T11:09:24;16.00;99.90
8778;DHT22;4425;50.872;4.712;2022-09-28T11:11:57;15.60;99.90
8778;DHT22;4425;50.872;4.712;2022-09-28T11:14:35;15.40;99.90
8778;DHT22;4425;50.872;4.712;2022-09-28T11:17:24;15.30;99.90
8778;DHT22;4425;50.872;4.712;2022-09-28T11:19:58;15.30;99.90
8778;DHT22;4425;50.872;4.712;2022-09-28T11:22:37;15.10;99.90
8778;DHT22;4425;50.872;4.712;2022-09-28T11:25:21;15.30;99.90
8778;DHT22;4425;50.872;4.712;2022-09-28T11:28:03;15.40;99.90
8778;DHT22;4425;50.872;4.712;2022-09-28T11:30:33;15.20;99.90
8778;DHT22;4425;50.872;4.712;2022-09-28T11:33:22;14.90;99.90
8778;DHT22;4425;50.872;4.712;2022-09-28T11:36:19;14.60;99.90
8778;DHT22;4425;50.872;4.712;2022-09-28T11:38:58;14.30;99.90
8778;DHT22;4425;50.872;4.712;2022-09-28T11:41:49;14.10;99.90
8778;DHT22;4425;50.872;4.712;2022-09-28T11:44:37;13.90;99.90
8778;DHT22;4425;50.872;4.712;2022-09-28T11:50:00;13.70;99.90
8778;DHT22;4425;50.872;4.712;2022-09-28T11:52:35;13.50;99.90
8778;DHT22;4425;50.872;4.712;2022-09-28T11:55:09;13.60;99.90
8778;DHT22;4425;50.872;4.712;2022-09-28T11:57:41;13.50;99.90
8778;DHT22;4425;50.872;4.712;2022-09-28T12:03:21;13.80;99.90
8778;DHT22;4425;50.872;4.712;2022-09-28T12:05:54;14.10;99.90
8778;DHT22;4425;50.872;4.712;2022-09-28T12:08:30;14.40;99.90
8778;DHT22;4425;50.872;4.712;2022-09-28T12:11:16;14.50;99.90
8778;DHT22;4425;50.872;4.712;2022-09-28T12:13:51;14.70;99.90
8778;DHT22;4425;50.872;4.712;2022-09-28T12:16:25;14.90;99.90
8778;DHT22;4425;50.872;4.712;2022-09-28T12:18:58;15.00;99.90
8778;DHT22;4425;50.872;4.712;2022-09-28T12:21:33;15.10;99.90
8778;DHT22;4425;50.872;4.712;2022-09-28T12:24:22;15.40;99.90
8778;DHT22;4425;50.872;4.712;2022-09-28T12:26:57;15.40;99.90
8778;DHT22;4425;50.872;4.712;2022-09-28T12:29:32;15.30;99.90
8778;DHT22;4425;50.872;4.712;2022-09-28T12:32:06;15.50;99.90
8778;DHT22;4425;50.872;4.712;2022-09-28T12:35:11;15.80;99.90
8778;DHT22;4425;50.872;4.712;2022-09-28T12:37:59;16.00;99.90
8778;DHT22;4425;50.872;4.712;2022-09-28T12:40:54;15.90;99.90
8778;DHT22;4425;50.872;4.712;2022-09-28T12:43:49;16.00;99.90
8778;DHT22;4425;50.872;4.712;2022-09-28T12:46:36;16.00;99.90
8778;DHT22;4425;50.872;4.712;2022-09-28T12:49:29;16.00;99.90
8778;DHT22;4425;50.872;4.712;2022-09-28T12:52:14;16.10;99.90
8778;DHT22;4425;50.872;4.712;2022-09-28T12:55:11;16.30;99.90
8778;DHT22;4425;50.872;4.712;2022-09-28T12:57:48;16.30;99.90
8778;DHT22;4425;50.872;4.712;2022-09-28T13:00:21;16.10;99.90
8778;DHT22;4425;50.872;4.712;2022-09-28T13:03:27;15.80;99.90
8778;DHT22;4425;50.872;4.712;2022-09-28T13:09:43;15.20;99.90
8778;DHT22;4425;50.872;4.712;2022-09-28T13:12:29;14.90;99.90
8778;DHT22;4425;50.872;4.712;2022-09-28T13:15:28;14.60;99.90
8778;DHT22;4425;50.872;4.712;2022-09-28T13:18:05;14.40;99.90
8778;DHT22;4425;50.872;4.712;2022-09-28T13:20:49;14.30;99.90
8778;DHT22;4425;50.872;4.712;2022-09-28T13:23:20;14.30;99.90
8778;DHT22;4425;50.872;4.712;2022-09-28T13:25:54;14.50;99.90
8778;DHT22;4425;50.872;4.712;2022-09-28T13:28:23;14.60;99.90
8778;DHT22;4425;50.872;4.712;2022-09-28T13:31:00;14.90;99.90
8778;DHT22;4425;50.872;4.712;2022-09-28T13:33:43;14.90;99.90
8778;DHT22;4425;50.872;4.712;2022-09-28T13:36:33;15.10;99.90
8778;DHT22;4425;50.872;4.712;2022-09-28T13:39:01;15.30;99.90
8778;DHT22;4425;50.872;4.712;2022-09-28T13:41:32;15.20;99.90
8778;DHT22;4425;50.872;4.712;2022-09-28T13:44:26;15.30;99.90
8778;DHT22;4425;50.872;4.712;2022-09-28T13:47:11;15.10;99.90
8778;DHT22;4425;50.872;4.712;2022-09-28T13:50:00;15.10;99.90
8778;DHT22;4425;50.872;4.712;2022-09-28T13:52:42;15.10;99.90
8778;DHT22;4425;50.872;4.712;2022-09-28T13:55:20;15.00;99.90
8778;DHT22;4425;50.872;4.712;2022-09-28T13:57:54;14.90;99.90
8778;DHT22;4425;50.872;4.712;2022-09-28T14:00:27;14.90;99.90
8778;DHT22;4425;50.872;4.712;2022-09-28T14:03:01;15.00;99.90
8778;DHT22;4425;50.872;4.712;2022-09-28T14:05:44;15.10;99.90
8778;DHT22;4425;50.872;4.712;2022-09-28T14:08:31;15.10;99.90
8778;DHT22;4425;50.872;4.712;2022-09-28T14:11:38;15.00;99.90
8778;DHT22;4425;50.872;4.712;2022-09-28T14:20:23;14.70;99.90
8778;DHT22;4425;50.872;4.712;2022-09-28T14:29:24;14.80;99.90
8778;DHT22;4425;50.872;4.712;2022-09-28T14:31:57;14.90;99.90
8778;DHT22;4425;50.872;4.712;2022-09-28T14:34:58;14.90;99.90
8778;DHT22;4425;50.872;4.712;2022-09-28T14:37:32;14.90;99.90
8778;DHT22;4425;50.872;4.712;2022-09-28T14:40:19;14.90;99.90
8778;DHT22;4425;50.872;4.712;2022-09-28T14:43:26;14.80;99.90
8778;DHT22;4425;50.872;4.712;2022-09-28T14:46:27;14.40;99.90
8778;DHT22;4425;50.872;4.712;2022-09-28T14:48:55;14.20;99.90
8778;DHT22;4425;50.872;4.712;2022-09-28T14:51:42;14.10;99.90
8778;DHT22;4425;50.872;4.712;2022-09-28T14:54:18;14.00;99.90
8778;DHT22;4425;50.872;4.712;2022-09-28T14:56:55;13.90;99.90
8778;DHT22;4425;50.872;4.712;2022-09-28T14:59:26;13.90;99.90
8778;DHT22;4425;50.872;4.712;2022-09-28T15:01:58;13.90;99.90
8778;DHT22;4425;50.872;4.712;2022-09-28T15:04:28;13.90;99.90
8778;DHT22;4425;50.872;4.712;2022-09-28T15:06:59;14.00;99.90
8778;DHT22;4425;50.872;4.712;2022-09-28T15:09:31;14.10;99.90
8778;DHT22;4425;50.872;4.712;2022-09-28T15:11:59;14.30;99.90
8778;DHT22;4425;50.872;4.712;2022-09-28T15:14:28;14.40;99.90
8778;DHT22;4425;50.872;4.712;2022-09-28T15:16:58;14.40;99.90
8778;DHT22;4425;50.872;4.712;2022-09-28T15:19:31;14.60;99.90
8778;DHT22;4425;50.872;4.712;2022-09-28T15:22:13;14.80;99.90
8778;DHT22;4425;50.872;4.712;2022-09-28T15:24:52;15.10;99.90
8778;DHT22;4425;50.872;4.712;2022-09-28T15:27:20;14.90;99.90
8778;DHT22;4425;50.872;4.712;2022-09-28T15:29:57;14.60;99.90
8778;DHT22;4425;50.872;4.712;2022-09-28T15:32:25;14.30;99.90
8778;DHT22;4425;50.872;4.712;2022-09-28T15:34:53;14.10;99.90
8778;DHT22;4425;50.872;4.712;2022-09-28T15:37:23;14.00;99.90
8778;DHT22;4425;50.872;4.712;2022-09-28T15:39:59;13.80;99.90
8778;DHT22;4425;50.872;4.712;2022-09-28T15:42:27;13.70;99.90
8778;DHT22;4425;50.872;4.712;2022-09-28T15:45:16;13.70;99.90
8778;DHT22;4425;50.872;4.712;2022-09-28T15:47:53;13.60;99.90
8778;DHT22;4425;50.872;4.712;2022-09-28T15:50:25;13.70;99.90
8778;DHT22;4425;50.872;4.712;2022-09-28T15:52:57;13.70;99.90
8778;DHT22;4425;50.872;4.712;2022-09-28T15:55:29;13.70;99.90
8778;DHT22;4425;50.872;4.712;2022-09-28T15:58:05;13.80;99.90
8778;DHT22;4425;50.872;4.712;2022-09-28T16:00:32;13.80;99.90
8778;DHT22;4425;50.872;4.712;2022-09-28T16:03:02;13.80;99.90
8778;DHT22;4425;50.872;4.712;2022-09-28T16:05:39;13.70;99.90
8778;DHT22;4425;50.872;4.712;2022-09-28T16:08:14;13.60;99.90
8778;DHT22;4425;50.872;4.712;2022-09-28T16:11:03;13.50;99.90
8778;DHT22;4425;50.872;4.712;2022-09-28T16:13:35;13.50;99.90
8778;DHT22;4425;50.872;4.712;2022-09-28T16:16:03;13.60;99.90
8778;DHT22;4425;50.872;4.712;2022-09-28T16:18:34;13.70;99.90
8778;DHT22;4425;50.872;4.712;2022-09-28T16:24:18;13.60;99.90
8778;DHT22;4425;50.872;4.712;2022-09-28T16:26:53;13.60;99.90
8778;DHT22;4425;50.872;4.712;2022-09-28T16:29:26;13.50;99.90
8778;DHT22;4425;50.872;4.712;2022-09-28T16:31:54;13.30;99.90
8778;DHT22;4425;50.872;4.712;2022-09-28T16:34:35;13.30;99.90
8778;DHT22;4425;50.872;4.712;2022-09-28T16:37:24;13.30;99.90
8778;DHT22;4425;50.872;4.712;2022-09-28T16:39:58;13.30;99.90
8778;DHT22;4425;50.872;4.712;2022-09-28T16:42:29;13.30;99.90
8778;DHT22;4425;50.872;4.712;2022-09-28T16:44:58;13.20;99.90
8778;DHT22;4425;50.872;4.712;2022-09-28T16:47:28;13.20;99.90
8778;DHT22;4425;50.872;4.712;2022-09-28T16:50:03;13.20;99.90
8778;DHT22;4425;50.872;4.712;2022-09-28T16:52:46;13.20;99.90
8778;DHT22;4425;50.872;4.712;2022-09-28T16:55:34;13.10;99.90
8778;DHT22;4425;50.872;4.712;2022-09-28T17:01:33;12.90;99.90
8778;DHT22;4425;50.872;4.712;2022-09-28T17:04:07;12.70;99.90
8778;DHT22;4425;50.872;4.712;2022-09-28T17:06:36;12.70;99.90
8778;DHT22;4425;50.872;4.712;2022-09-28T17:09:18;12.60;99.90
8778;DHT22;4425;50.872;4.712;2022-09-28T17:12:07;12.50;99.90
8778;DHT22;4425;50.872;4.712;2022-09-28T17:14:43;12.40;99.90
8778;DHT22;4425;50.872;4.712;2022-09-28T17:17:15;12.30;99.90
8778;DHT22;4425;50.872;4.712;2022-09-28T17:19:42;12.30;99.90
8778;DHT22;4425;50.872;4.712;2022-09-28T17:22:10;12.20;99.90
8778;DHT22;4425;50.872;4.712;2022-09-28T17:24:39;12.10;99.90
8778;DHT22;4425;50.872;4.712;2022-09-28T17:27:11;12.10;99.90
8778;DHT22;4425;50.872;4.712;2022-09-28T17:29:42;11.90;99.90
8778;DHT22;4425;50.872;4.712;2022-09-28T17:32:10;11.90;99.90
8778;DHT22;4425;50.872;4.712;2022-09-28T17:34:41;11.80;99.90
8778;DHT22;4425;50.872;4.712;2022-09-28T17:37:09;11.80;99.90
8778;DHT22;4425;50.872;4.712;2022-09-28T17:39:43;11.80;99.90
8778;DHT22;4425;50.872;4.712;2022-09-28T17:42:11;11.80;99.90
8778;DHT22;4425;50.872;4.712;2022-09-28T17:44:40;11.70;99.90
8778;DHT22;4425;50.872;4.712;2022-09-28T17:47:07;11.70;99.90
8778;DHT22;4425;50.872;4.712;2022-09-28T17:49:35;11.70;99.90
8778;DHT22;4425;50.872;4.712;2022-09-28T17:52:04;11.70;99.90
8778;DHT22;4425;50.872;4.712;2022-09-28T17:54:32;11.60;99.90
8778;DHT22;4425;50.872;4.712;2022-09-28T17:57:01;11.50;99.90
8778;DHT22;4425;50.872;4.712;2022-09-28T17:59:30;11.60;99.90
8778;DHT22;4425;50.872;4.712;2022-09-28T18:01:57;11.60;99.90